Airport View

Enter AWOS ICAO identifier for current METAR.

ex. KFNL

KNTU 250135Z 04006KT 2SM BR OVC002 13/12 A3018 RMK AO2 T01280122

25 May 2020 01:46

Phone: DSN 433-3619

Other Area AWOS: KNFE - KORF - KNGU - KCPK

TAF KNTU 2423/2523 05007KT 4800 BR OVC004 QNH3010INS FM250300 05008KT 3200 BR OVC006 QNH3009INS TEMPO 2503/2509 1800 BR OVC007 FM250900 VRB06KT 8000 BR BKN025 OVC150 QNH3008INS T13/2506Z T18/25215ZFN00230